Time;durP1;ratioP1;P1;durP2;ratioP2;P2;SDS_P1;SDS_P2;PMS_P1;PMS_P2;Temp;Humidity;BMP_temperature;BMP_pressure;BME280_temperature;BME280_humidity;BME280_pressure;Samples;Min_cycle;Max_cycle;Signal;HPM_P1;HPM_P2
2021/08/07 00:01:01;;;;;;;;;;;21.30;64.80;;;;;;5079899;28;19978;-71
2021/08/07 00:03:27;;;;;;;;;;;21.30;64.80;;;;;;5047709;28;19917;-71
2021/08/07 00:05:52;;;;;;;;;;;21.30;64.70;;;;;;5079972;28;19921;-71
2021/08/07 00:08:18;;;;;;;;;;;21.30;64.80;;;;;;5048434;28;20341;-71
2021/08/07 00:10:43;;;;;;;;;;;21.30;64.70;;;;;;5048041;28;19920;-70
2021/08/07 00:13:09;;;;;;;;;;;21.30;64.70;;;;;;5046980;28;19924;-71
2021/08/07 00:15:34;;;;;;;;;;;21.30;64.80;;;;;;5053777;28;19924;-70
2021/08/07 00:18:00;;;;;;;;;;;21.30;64.70;;;;;;5049110;28;19917;-71
2021/08/07 00:20:25;;;;;;;;;;;21.30;65.30;;;;;;5047766;28;19913;-70
2021/08/07 00:22:50;;;;;;;;;;;21.30;64.70;;;;;;5059740;28;19969;-70
2021/08/07 00:25:16;;;;;;;;;;;21.30;64.70;;;;;;5058686;28;19962;-71
2021/08/07 00:27:41;;;;;;;;;;;21.30;64.70;;;;;;5056105;28;20391;-71
2021/08/07 00:30:07;;;;;;;;;;;21.30;64.70;;;;;;5058094;28;19917;-71
2021/08/07 00:32:33;;;;;;;;;;;21.30;64.60;;;;;;5056431;28;20451;-71
2021/08/07 00:34:58;;;;;;;;;;;21.30;65.20;;;;;;5056454;28;19913;-70
2021/08/07 00:37:24;;;;;;;;;;;21.30;64.50;;;;;;5057816;28;19920;-71
2021/08/07 00:39:50;;;;;;;;;;;21.30;64.40;;;;;;5055282;28;19917;-71
2021/08/07 00:42:15;;;;;;;;;;;21.30;64.40;;;;;;5058416;28;19912;-71
2021/08/07 00:44:41;;;;;;;;;;;21.30;64.40;;;;;;5054810;28;19920;-71
2021/08/07 00:47:06;;;;;;;;;;;21.30;64.40;;;;;;5055447;28;19923;-70
2021/08/07 00:49:32;;;;;;;;;;;21.30;64.40;;;;;;5056727;28;20348;-70
2021/08/07 00:51:57;;;;;;;;;;;21.30;64.40;;;;;;5056077;28;19917;-70
2021/08/07 00:54:23;;;;;;;;;;;21.30;64.30;;;;;;5058289;28;19970;-71
2021/08/07 00:56:48;;;;;;;;;;;21.30;64.40;;;;;;5061238;28;20358;-71
2021/08/07 00:59:13;;;;;;;;;;;21.30;64.40;;;;;;5066527;28;19923;-71
2021/08/07 01:01:42;;;;;;;;;;;21.30;64.40;;;;;;5066592;28;19944;-71
2021/08/07 01:04:07;;;;;;;;;;;21.30;64.50;;;;;;5066500;28;19912;-71
2021/08/07 01:06:48;;;;;;;;;;;21.30;64.50;;;;;;5064722;28;19912;-71
2021/08/07 01:09:34;;;;;;;;;;;21.30;64.40;;;;;;5066124;28;19916;-70
2021/08/07 01:12:05;;;;;;;;;;;21.30;64.40;;;;;;5057892;28;19921;-71
2021/08/07 01:14:35;;;;;;;;;;;21.30;64.50;;;;;;5037717;28;19959;-70
2021/08/07 01:17:02;;;;;;;;;;;21.30;64.50;;;;;;5055066;28;19955;-71
2021/08/07 01:19:28;;;;;;;;;;;21.30;64.40;;;;;;5028437;28;20379;-70
2021/08/07 01:21:54;;;;;;;;;;;21.30;64.30;;;;;;5055470;28;19960;-71
2021/08/07 01:24:33;;;;;;;;;;;21.30;64.40;;;;;;5054753;28;19913;-71
2021/08/07 01:27:15;;;;;;;;;;;21.30;64.40;;;;;;5056104;28;20583;-71
2021/08/07 01:29:40;;;;;;;;;;;21.30;64.30;;;;;;5055111;28;19923;-71
2021/08/07 01:32:06;;;;;;;;;;;21.30;64.30;;;;;;5054298;28;20322;-70
2021/08/07 01:34:31;;;;;;;;;;;21.30;64.30;;;;;;5055354;28;19975;-71
2021/08/07 01:36:56;;;;;;;;;;;21.30;64.30;;;;;;5055660;28;19966;-71
2021/08/07 01:39:22;;;;;;;;;;;21.30;64.30;;;;;;5053118;28;19959;-70
2021/08/07 01:41:47;;;;;;;;;;;21.30;64.20;;;;;;5058041;28;19916;-71
2021/08/07 01:44:13;;;;;;;;;;;21.30;64.20;;;;;;5055653;28;19925;-71
2021/08/07 01:46:48;;;;;;;;;;;21.30;64.20;;;;;;5055082;28;19932;-71
2021/08/07 01:49:14;;;;;;;;;;;21.30;64.30;;;;;;5052849;28;19913;-71
2021/08/07 01:51:44;;;;;;;;;;;21.30;64.30;;;;;;5056261;28;20334;-71
2021/08/07 01:54:10;;;;;;;;;;;21.30;64.30;;;;;;5053238;28;19920;-70
2021/08/07 01:56:37;;;;;;;;;;;21.30;64.20;;;;;;5052768;28;19928;-71
2021/08/07 01:59:09;;;;;;;;;;;21.30;64.60;;;;;;5053970;28;20432;-71
2021/08/07 02:01:34;;;;;;;;;;;21.30;64.20;;;;;;5055054;28;19924;-70
2021/08/07 02:04:00;;;;;;;;;;;21.30;64.20;;;;;;5045993;28;19920;-71
2021/08/07 02:06:26;;;;;;;;;;;21.30;64.10;;;;;;5051949;28;19916;-71
2021/08/07 02:08:51;;;;;;;;;;;21.20;64.10;;;;;;5055725;28;19923;-71
2021/08/07 02:11:17;;;;;;;;;;;21.30;64.10;;;;;;5051982;28;19949;-70
2021/08/07 02:13:42;;;;;;;;;;;21.20;64.10;;;;;;5055733;28;19939;-71
2021/08/07 02:16:07;;;;;;;;;;;21.20;64.10;;;;;;5053208;28;19961;-70
2021/08/07 02:18:33;;;;;;;;;;;21.20;64.10;;;;;;5054686;28;19913;-70
2021/08/07 02:20:58;;;;;;;;;;;21.20;64.10;;;;;;5056269;28;19916;-71
2021/08/07 02:23:24;;;;;;;;;;;21.20;64.10;;;;;;5052202;28;19917;-71
2021/08/07 02:25:51;;;;;;;;;;;21.20;64.10;;;;;;5055774;28;19917;-70
2021/08/07 02:28:17;;;;;;;;;;;21.20;64.10;;;;;;5053477;28;20413;-71
2021/08/07 02:30:42;;;;;;;;;;;21.20;64.20;;;;;;5054706;28;19916;-70
2021/08/07 02:33:08;;;;;;;;;;;21.20;64.20;;;;;;5054769;28;20306;-71
2021/08/07 02:35:33;;;;;;;;;;;21.20;64.20;;;;;;5053228;28;19983;-70
2021/08/07 02:37:59;;;;;;;;;;;21.20;64.30;;;;;;5054694;28;20430;-71
2021/08/07 02:40:24;;;;;;;;;;;21.20;64.30;;;;;;5052889;28;19919;-70
2021/08/07 02:42:50;;;;;;;;;;;21.20;64.40;;;;;;5055709;28;20029;-70
2021/08/07 02:45:15;;;;;;;;;;;21.20;64.30;;;;;;5052760;28;19917;-70
2021/08/07 02:47:41;;;;;;;;;;;21.20;64.40;;;;;;5055676;28;19978;-70
2021/08/07 02:50:06;;;;;;;;;;;21.20;64.30;;;;;;5055191;28;19917;-70
2021/08/07 02:52:35;;;;;;;;;;;21.20;64.10;;;;;;5053888;28;20043;-70
2021/08/07 02:55:03;;;;;;;;;;;21.20;64.00;;;;;;5055644;28;20387;-70
2021/08/07 02:57:28;;;;;;;;;;;21.20;64.00;;;;;;5053340;28;19924;-71
2021/08/07 02:59:54;;;;;;;;;;;21.20;64.00;;;;;;5056320;28;20372;-71
2021/08/07 03:02:19;;;;;;;;;;;21.20;64.00;;;;;;5051967;28;19920;-70
2021/08/07 03:04:44;;;;;;;;;;;21.20;64.00;;;;;;5055752;28;19916;-70
2021/08/07 03:07:10;;;;;;;;;;;21.20;64.00;;;;;;5053879;28;20403;-70
2021/08/07 03:09:35;;;;;;;;;;;21.20;64.00;;;;;;5045826;28;19917;-70
2021/08/07 03:12:01;;;;;;;;;;;21.20;63.90;;;;;;5065861;28;19924;-70
2021/08/07 03:14:26;;;;;;;;;;;21.20;63.90;;;;;;5067310;28;20307;-71
2021/08/07 03:16:52;;;;;;;;;;;21.20;63.90;;;;;;5056496;28;19917;-71
2021/08/07 03:19:17;;;;;;;;;;;21.10;63.90;;;;;;5059355;28;19956;-71
2021/08/07 03:21:43;;;;;;;;;;;21.20;64.10;;;;;;5057753;28;20406;-71
2021/08/07 03:24:08;;;;;;;;;;;21.20;64.10;;;;;;5058118;28;19921;-70
2021/08/07 03:26:34;;;;;;;;;;;21.20;64.20;;;;;;5058808;28;19948;-70
2021/08/07 03:28:59;;;;;;;;;;;21.20;64.30;;;;;;5056575;28;19916;-70
2021/08/07 03:31:25;;;;;;;;;;;21.10;64.20;;;;;;5058928;28;19920;-71
2021/08/07 03:33:50;;;;;;;;;;;21.20;64.20;;;;;;5055218;28;19920;-70
2021/08/07 03:36:16;;;;;;;;;;;21.20;64.20;;;;;;5058620;28;20295;-71
2021/08/07 03:38:41;;;;;;;;;;;21.20;64.20;;;;;;5057611;28;19966;-71
2021/08/07 03:41:07;;;;;;;;;;;21.20;64.10;;;;;;5056149;28;19913;-71
2021/08/07 03:43:32;;;;;;;;;;;21.10;63.80;;;;;;5051189;28;20287;-69
2021/08/07 03:45:57;;;;;;;;;;;21.10;63.70;;;;;;5047638;28;19967;-71
2021/08/07 03:48:23;;;;;;;;;;;21.20;63.90;;;;;;5046704;28;19917;-69
2021/08/07 03:50:48;;;;;;;;;;;21.10;63.80;;;;;;5047631;28;20299;-69
2021/08/07 03:53:14;;;;;;;;;;;21.10;63.80;;;;;;5047574;28;19931;-70
2021/08/07 03:55:39;;;;;;;;;;;21.10;63.70;;;;;;5047304;28;19928;-64
2021/08/07 03:58:05;;;;;;;;;;;21.10;63.70;;;;;;5046954;28;19927;-69
2021/08/07 04:00:31;;;;;;;;;;;21.10;63.70;;;;;;5047578;28;19913;-71
2021/08/07 04:02:56;;;;;;;;;;;21.10;63.70;;;;;;5047708;28;19917;-70
2021/08/07 04:05:21;;;;;;;;;;;21.10;63.60;;;;;;5046930;28;19917;-70
2021/08/07 04:07:47;;;;;;;;;;;21.10;63.70;;;;;;5047148;28;20407;-70
2021/08/07 04:10:13;;;;;;;;;;;21.10;63.70;;;;;;5043944;28;19935;-70
2021/08/07 04:12:38;;;;;;;;;;;21.10;63.70;;;;;;5047202;28;19931;-70
2021/08/07 04:15:04;;;;;;;;;;;21.10;63.90;;;;;;5047459;28;19916;-70
2021/08/07 04:17:29;;;;;;;;;;;21.10;64.00;;;;;;5047225;28;20450;-70
2021/08/07 04:19:55;;;;;;;;;;;21.10;63.90;;;;;;5046710;28;19913;-70
2021/08/07 04:22:20;;;;;;;;;;;21.10;63.80;;;;;;5046095;28;19916;-64
2021/08/07 04:24:46;;;;;;;;;;;21.10;63.80;;;;;;5047403;28;19913;-70
2021/08/07 04:27:12;;;;;;;;;;;21.10;63.80;;;;;;5047428;28;19962;-70
2021/08/07 04:29:38;;;;;;;;;;;21.10;63.80;;;;;;5047965;28;19931;-64
2021/08/07 04:32:03;;;;;;;;;;;21.10;63.60;;;;;;5045697;28;19917;-70
2021/08/07 04:34:29;;;;;;;;;;;21.10;63.40;;;;;;5046637;28;19912;-70
2021/08/07 04:36:55;;;;;;;;;;;21.10;63.30;;;;;;5045877;28;19921;-69
2021/08/07 04:39:21;;;;;;;;;;;21.10;63.40;;;;;;5046909;28;19938;-70
2021/08/07 04:41:46;;;;;;;;;;;21.10;63.40;;;;;;5046842;28;19944;-67
2021/08/07 04:44:11;;;;;;;;;;;21.10;63.30;;;;;;5046464;28;19967;-70
2021/08/07 04:46:37;;;;;;;;;;;21.10;63.40;;;;;;5046852;28;20383;-70
2021/08/07 04:49:02;;;;;;;;;;;21.10;63.30;;;;;;5046802;28;19913;-70
2021/08/07 04:51:28;;;;;;;;;;;21.10;63.40;;;;;;5047056;28;19913;-70
2021/08/07 04:53:53;;;;;;;;;;;21.10;63.40;;;;;;5046626;28;19959;-70
2021/08/07 04:56:19;;;;;;;;;;;21.10;63.40;;;;;;5046288;28;19994;-70
2021/08/07 04:58:44;;;;;;;;;;;21.10;63.30;;;;;;5046509;28;19921;-65
2021/08/07 05:01:09;;;;;;;;;;;21.10;63.40;;;;;;5046569;28;19917;-70
2021/08/07 05:03:35;;;;;;;;;;;21.10;63.40;;;;;;5047126;28;20393;-70
2021/08/07 05:06:00;;;;;;;;;;;21.10;63.40;;;;;;5047065;28;19913;-68
2021/08/07 05:08:26;;;;;;;;;;;21.10;63.40;;;;;;5047648;28;19960;-70
2021/08/07 05:10:51;;;;;;;;;;;21.10;63.50;;;;;;5046451;28;19924;-71
2021/08/07 05:13:17;;;;;;;;;;;21.10;63.60;;;;;;5047855;28;19959;-70
2021/08/07 05:15:42;;;;;;;;;;;21.10;63.60;;;;;;5045265;28;20005;-70
2021/08/07 05:18:08;;;;;;;;;;;21.10;63.70;;;;;;5046119;28;19925;-64
2021/08/07 05:20:33;;;;;;;;;;;21.10;63.70;;;;;;5046722;28;19913;-70
2021/08/07 05:22:58;;;;;;;;;;;21.10;63.70;;;;;;5047471;28;19920;-70
2021/08/07 05:25:24;;;;;;;;;;;21.10;63.60;;;;;;5045859;28;20633;-70
2021/08/07 05:27:49;;;;;;;;;;;21.10;63.70;;;;;;5046210;28;20136;-70
2021/08/07 05:30:15;;;;;;;;;;;21.10;63.60;;;;;;5046341;28;19917;-70
2021/08/07 05:32:40;;;;;;;;;;;21.10;63.60;;;;;;5033802;28;19917;-70
2021/08/07 05:35:06;;;;;;;;;;;21.10;63.60;;;;;;5045346;28;19978;-70
2021/08/07 05:37:32;;;;;;;;;;;21.10;63.60;;;;;;5046491;28;19912;-70
2021/08/07 05:39:58;;;;;;;;;;;21.10;63.60;;;;;;5047010;28;19959;-64
2021/08/07 05:42:24;;;;;;;;;;;21.10;63.60;;;;;;5046330;28;19913;-64
2021/08/07 05:44:49;;;;;;;;;;;21.10;63.60;;;;;;5046452;28;19932;-70
2021/08/07 05:47:15;;;;;;;;;;;21.10;63.60;;;;;;5046495;28;19927;-69
2021/08/07 05:49:40;;;;;;;;;;;21.10;63.70;;;;;;5045981;28;20304;-69
2021/08/07 05:52:06;;;;;;;;;;;21.10;63.60;;;;;;5044157;28;19946;-69
2021/08/07 05:54:31;;;;;;;;;;;21.10;63.60;;;;;;5045640;28;19926;-70
2021/08/07 05:56:57;;;;;;;;;;;21.10;63.70;;;;;;5052674;22;19908;-59
2021/08/07 05:59:22;;;;;;;;;;;21.10;63.60;;;;;;5020375;28;19929;-57
2021/08/07 06:01:48;;;;;;;;;;;21.10;63.70;;;;;;5013702;28;19948;-59
2021/08/07 06:04:13;;;;;;;;;;;21.10;63.70;;;;;;5023337;28;19917;-59
2021/08/07 06:06:39;;;;;;;;;;;21.10;63.70;;;;;;5023163;28;20341;-59
2021/08/07 06:09:04;;;;;;;;;;;21.10;63.80;;;;;;5022692;28;19914;-58
2021/08/07 06:11:29;;;;;;;;;;;21.10;63.80;;;;;;5018012;28;19917;-58
2021/08/07 06:13:55;;;;;;;;;;;21.10;63.80;;;;;;5023111;28;20383;-58
2021/08/07 06:16:20;;;;;;;;;;;21.10;63.80;;;;;;5022932;28;19913;-58
2021/08/07 06:18:46;;;;;;;;;;;21.10;63.90;;;;;;5022139;28;19917;-58
2021/08/07 06:21:11;;;;;;;;;;;21.10;63.90;;;;;;5022077;28;19940;-59
2021/08/07 06:23:37;;;;;;;;;;;21.10;63.90;;;;;;5022688;28;19914;-58
2021/08/07 06:26:02;;;;;;;;;;;21.10;63.90;;;;;;5022453;28;19917;-58
2021/08/07 06:28:28;;;;;;;;;;;21.10;64.00;;;;;;5022670;28;20377;-59
2021/08/07 06:30:53;;;;;;;;;;;21.10;63.90;;;;;;5023415;28;19971;-59
2021/08/07 06:33:19;;;;;;;;;;;21.10;63.90;;;;;;5023541;28;19917;-58
2021/08/07 06:35:44;;;;;;;;;;;21.10;64.00;;;;;;5022724;28;19990;-57
2021/08/07 06:38:09;;;;;;;;;;;21.10;64.00;;;;;;5038349;28;19939;-58
2021/08/07 06:40:35;;;;;;;;;;;21.10;64.00;;;;;;5023149;28;19913;-59
2021/08/07 06:43:00;;;;;;;;;;;21.10;64.10;;;;;;5024793;28;20346;-58
2021/08/07 06:45:26;;;;;;;;;;;21.10;64.10;;;;;;5027615;28;20377;-57
2021/08/07 06:47:51;;;;;;;;;;;21.10;64.10;;;;;;5027535;28;19917;-59
2021/08/07 06:50:17;;;;;;;;;;;21.10;64.10;;;;;;5027367;28;19925;-59
2021/08/07 06:52:43;;;;;;;;;;;21.00;64.10;;;;;;5027762;28;19917;-58
2021/08/07 06:55:09;;;;;;;;;;;21.10;64.20;;;;;;5017902;28;20076;-58
2021/08/07 06:57:34;;;;;;;;;;;21.00;64.20;;;;;;5021982;28;19922;-57
2021/08/07 07:00:01;;;;;;;;;;;21.10;64.40;;;;;;5006417;28;19935;-58
2021/08/07 07:02:26;;;;;;;;;;;21.10;64.30;;;;;;5006869;28;19953;-58
2021/08/07 07:04:52;;;;;;;;;;;21.00;64.40;;;;;;5006552;28;20690;-57
2021/08/07 07:07:17;;;;;;;;;;;21.10;64.40;;;;;;5006562;28;19914;-59
2021/08/07 07:09:43;;;;;;;;;;;21.10;64.50;;;;;;5000567;28;19921;-58
2021/08/07 07:12:08;;;;;;;;;;;21.00;64.40;;;;;;5006695;28;20683;-59
2021/08/07 07:14:34;;;;;;;;;;;21.00;64.50;;;;;;5006902;28;19918;-57
2021/08/07 07:16:59;;;;;;;;;;;21.00;64.50;;;;;;5006122;28;19940;-59
2021/08/07 07:19:27;;;;;;;;;;;21.10;64.60;;;;;;5005725;28;20275;-59
2021/08/07 07:21:52;;;;;;;;;;;21.00;64.60;;;;;;5006762;28;19917;-59
2021/08/07 07:24:18;;;;;;;;;;;21.00;64.60;;;;;;5006209;28;19913;-59
2021/08/07 07:26:43;;;;;;;;;;;21.00;64.70;;;;;;5006302;28;19917;-59
2021/08/07 07:29:09;;;;;;;;;;;21.00;64.70;;;;;;5005717;28;19921;-59
2021/08/07 07:31:34;;;;;;;;;;;21.00;64.70;;;;;;5006638;28;20506;-57
2021/08/07 07:34:00;;;;;;;;;;;21.00;64.70;;;;;;5006230;28;19917;-57
2021/08/07 07:36:25;;;;;;;;;;;21.00;64.70;;;;;;5004734;28;19926;-58
2021/08/07 07:38:51;;;;;;;;;;;21.00;64.70;;;;;;5005319;28;19921;-58
2021/08/07 07:41:16;;;;;;;;;;;21.00;64.70;;;;;;5006217;28;19986;-59
2021/08/07 07:43:41;;;;;;;;;;;21.00;64.70;;;;;;5006395;28;19993;-58
2021/08/07 07:46:07;;;;;;;;;;;21.00;64.80;;;;;;5006056;28;19918;-58
2021/08/07 07:48:32;;;;;;;;;;;21.00;64.80;;;;;;5006112;28;19914;-58
2021/08/07 07:50:58;;;;;;;;;;;21.00;64.90;;;;;;5004302;28;20276;-58
2021/08/07 07:53:23;;;;;;;;;;;21.00;64.90;;;;;;5005287;28;19917;-57
2021/08/07 07:55:49;;;;;;;;;;;21.00;64.90;;;;;;5005719;28;19921;-58
2021/08/07 07:58:14;;;;;;;;;;;21.00;64.80;;;;;;5005260;28;20012;-59
2021/08/07 08:00:40;;;;;;;;;;;21.00;64.90;;;;;;5005623;28;20287;-58
2021/08/07 08:03:05;;;;;;;;;;;21.00;64.90;;;;;;5006149;28;19914;-59
2021/08/07 08:05:30;;;;;;;;;;;21.00;64.80;;;;;;5005384;28;19928;-58
2021/08/07 08:07:56;;;;;;;;;;;21.00;64.90;;;;;;5004926;28;20378;-58
2021/08/07 08:10:21;;;;;;;;;;;21.00;64.90;;;;;;5001509;28;19922;-58
2021/08/07 08:12:47;;;;;;;;;;;21.00;64.90;;;;;;5005582;28;19968;-58
2021/08/07 08:15:12;;;;;;;;;;;21.00;64.80;;;;;;5005534;28;19937;-58
2021/08/07 08:17:38;;;;;;;;;;;21.00;64.80;;;;;;5003633;28;19928;-57
2021/08/07 08:20:04;;;;;;;;;;;21.00;65.50;;;;;;5005971;28;20132;-59
2021/08/07 08:22:29;;;;;;;;;;;21.00;64.90;;;;;;5004133;28;19918;-59
2021/08/07 08:24:55;;;;;;;;;;;21.00;64.90;;;;;;5005608;28;20378;-58
2021/08/07 08:27:20;;;;;;;;;;;21.00;65.00;;;;;;5005676;28;20121;-59
2021/08/07 08:29:46;;;;;;;;;;;21.00;65.00;;;;;;5005063;28;19924;-59
2021/08/07 08:32:12;;;;;;;;;;;21.00;65.00;;;;;;5003848;28;20444;-57
2021/08/07 08:34:37;;;;;;;;;;;21.00;65.00;;;;;;5005235;28;20148;-58
2021/08/07 08:37:03;;;;;;;;;;;21.00;65.00;;;;;;5004973;28;20371;-57
2021/08/07 08:39:28;;;;;;;;;;;21.00;65.00;;;;;;5004014;28;19980;-57
2021/08/07 08:41:54;;;;;;;;;;;21.00;65.00;;;;;;5004461;28;19920;-59
2021/08/07 08:44:19;;;;;;;;;;;21.00;65.10;;;;;;5004427;28;20028;-57
2021/08/07 08:46:45;;;;;;;;;;;21.00;65.00;;;;;;5004574;28;19970;-57
2021/08/07 08:49:12;;;;;;;;;;;21.00;65.00;;;;;;5002571;28;20402;-58
2021/08/07 08:51:37;;;;;;;;;;;20.90;65.00;;;;;;5004117;28;20584;-58
2021/08/07 08:54:03;;;;;;;;;;;21.00;65.10;;;;;;5003358;28;19918;-58
2021/08/07 08:56:34;;;;;;;;;;;20.90;65.00;;;;;;5004310;28;19920;-58
2021/08/07 08:59:01;;;;;;;;;;;21.00;65.10;;;;;;5003762;28;19929;-58
2021/08/07 09:01:26;;;;;;;;;;;21.00;65.20;;;;;;5004254;28;19925;-58
2021/08/07 09:03:52;;;;;;;;;;;21.00;65.20;;;;;;5004173;28;19918;-58
2021/08/07 09:06:17;;;;;;;;;;;21.00;65.10;;;;;;5003579;28;20390;-59
2021/08/07 09:09:01;;;;;;;;;;;21.00;65.20;;;;;;5004075;28;19914;-58
2021/08/07 09:11:27;;;;;;;;;;;21.00;65.20;;;;;;5001715;28;19917;-59
2021/08/07 09:14:11;;;;;;;;;;;21.00;65.10;;;;;;5003846;28;20063;-57
2021/08/07 09:16:36;;;;;;;;;;;21.00;65.00;;;;;;5003999;28;19917;-58
2021/08/07 09:19:02;;;;;;;;;;;21.00;65.10;;;;;;5003218;28;19983;-59
2021/08/07 09:21:27;;;;;;;;;;;21.00;65.10;;;;;;5003794;28;19918;-56
2021/08/07 09:24:05;;;;;;;;;;;21.00;65.10;;;;;;5003859;28;19917;-57
2021/08/07 09:26:30;;;;;;;;;;;21.00;65.10;;;;;;5004338;28;19926;-59
2021/08/07 09:28:56;;;;;;;;;;;21.00;65.00;;;;;;5001465;28;19917;-59
2021/08/07 09:31:22;;;;;;;;;;;20.90;65.10;;;;;;5003610;28;20446;-58
2021/08/07 09:33:50;;;;;;;;;;;21.00;65.80;;;;;;5003708;28;19996;-57
2021/08/07 09:36:15;;;;;;;;;;;21.00;65.10;;;;;;5002056;28;19920;-58
2021/08/07 09:38:44;;;;;;;;;;;21.00;65.10;;;;;;5001806;28;19913;-55
2021/08/07 09:41:10;;;;;;;;;;;21.00;65.10;;;;;;5004088;28;19952;-57
2021/08/07 09:43:42;;;;;;;;;;;21.00;65.20;;;;;;5002949;28;19952;-57
2021/08/07 09:46:09;;;;;;;;;;;21.00;65.20;;;;;;5003476;28;19917;-59
2021/08/07 09:48:42;;;;;;;;;;;21.00;65.10;;;;;;5002935;28;19940;-57
2021/08/07 09:51:14;;;;;;;;;;;21.00;65.10;;;;;;5003454;28;20294;-58
2021/08/07 09:53:40;;;;;;;;;;;20.90;65.00;;;;;;4991115;28;21714;-58
2021/08/07 09:56:05;;;;;;;;;;;21.00;65.00;;;;;;5002715;28;19913;-58
2021/08/07 09:58:31;;;;;;;;;;;21.00;65.00;;;;;;5002528;28;19956;-58
2021/08/07 10:00:56;;;;;;;;;;;21.00;65.00;;;;;;5003303;28;19922;-57
2021/08/07 10:03:23;;;;;;;;;;;21.00;64.90;;;;;;5002471;28;20020;-58
2021/08/07 10:05:49;;;;;;;;;;;21.00;65.00;;;;;;5003684;28;19919;-59
2021/08/07 10:08:14;;;;;;;;;;;21.00;64.90;;;;;;5003363;28;19914;-57
2021/08/07 10:10:40;;;;;;;;;;;21.00;64.90;;;;;;5004271;28;20440;-58
2021/08/07 10:13:06;;;;;;;;;;;21.00;65.50;;;;;;5003174;28;19947;-58
2021/08/07 10:15:32;;;;;;;;;;;21.00;64.80;;;;;;5003734;28;19913;-57
2021/08/07 10:17:58;;;;;;;;;;;21.00;64.80;;;;;;5002176;28;19944;-58
2021/08/07 10:20:23;;;;;;;;;;;21.00;64.80;;;;;;5002272;28;19913;-59
2021/08/07 10:22:52;;;;;;;;;;;21.00;64.80;;;;;;5003689;28;19984;-57
2021/08/07 10:25:17;;;;;;;;;;;21.00;64.80;;;;;;5003155;28;20016;-55
2021/08/07 10:27:43;;;;;;;;;;;21.00;64.70;;;;;;5002565;28;20366;-58
2021/08/07 10:30:11;;;;;;;;;;;21.00;64.70;;;;;;5003292;28;19918;-58
2021/08/07 10:32:40;;;;;;;;;;;21.00;64.70;;;;;;5001406;28;19925;-57
2021/08/07 10:35:06;;;;;;;;;;;21.00;64.70;;;;;;5002788;28;19925;-59
2021/08/07 10:37:31;;;;;;;;;;;21.00;64.60;;;;;;5002573;28;19917;-58
2021/08/07 10:39:57;;;;;;;;;;;21.00;64.60;;;;;;5000834;28;19917;-57
2021/08/07 10:42:22;;;;;;;;;;;21.00;64.60;;;;;;5002595;28;19944;-58
2021/08/07 10:44:48;;;;;;;;;;;21.00;64.60;;;;;;5002799;28;19920;-58
2021/08/07 10:47:13;;;;;;;;;;;21.00;64.70;;;;;;4999450;28;19917;-55
2021/08/07 10:49:39;;;;;;;;;;;21.00;64.70;;;;;;5002587;28;20614;-58
2021/08/07 10:52:20;;;;;;;;;;;21.00;64.70;;;;;;5002081;28;19948;-57
2021/08/07 10:54:45;;;;;;;;;;;21.00;64.70;;;;;;4983303;28;20411;-58
2021/08/07 10:57:16;;;;;;;;;;;21.00;64.70;;;;;;4982658;28;19940;-58
2021/08/07 10:59:41;;;;;;;;;;;21.00;64.70;;;;;;4980895;28;20383;-59
2021/08/07 11:02:16;;;;;;;;;;;21.00;64.70;;;;;;4982852;28;20127;-58
2021/08/07 11:04:49;;;;;;;;;;;21.00;64.60;;;;;;5002484;28;19913;-57
2021/08/07 11:07:18;;;;;;;;;;;21.00;64.60;;;;;;5002502;28;20059;-58
2021/08/07 11:09:43;;;;;;;;;;;21.00;64.60;;;;;;5001576;28;20444;-57
2021/08/07 11:12:09;;;;;;;;;;;21.00;64.60;;;;;;5002442;28;20091;-56
2021/08/07 11:14:34;;;;;;;;;;;21.00;64.60;;;;;;5004492;28;19921;-59
2021/08/07 11:17:03;;;;;;;;;;;21.00;64.60;;;;;;5003973;28;19914;-57
2021/08/07 11:19:48;;;;;;;;;;;21.00;64.60;;;;;;5001938;28;20362;-59
2021/08/07 11:22:44;;;;;;;;;;;21.00;64.50;;;;;;5002980;28;19952;-59
2021/08/07 11:25:22;;;;;;;;;;;21.00;64.50;;;;;;4998004;28;19913;-59
2021/08/07 11:30:19;;;;;;;;;;;21.10;64.50;;;;;;5005413;28;20385;-56
2021/08/07 11:32:56;;;;;;;;;;;21.00;64.50;;;;;;5004917;28;19917;-58
2021/08/07 11:35:31;;;;;;;;;;;21.10;64.50;;;;;;5006095;28;19953;-58
2021/08/07 11:38:06;;;;;;;;;;;21.10;64.50;;;;;;5005892;28;20000;-59
2021/08/07 11:40:51;;;;;;;;;;;21.10;64.50;;;;;;5006064;28;19921;-60
2021/08/07 11:43:21;;;;;;;;;;;21.10;64.40;;;;;;5006477;28;19913;-60
2021/08/07 11:45:47;;;;;;;;;;;21.10;64.40;;;;;;5005832;28;19917;-60
2021/08/07 11:48:22;;;;;;;;;;;21.10;64.30;;;;;;5006221;28;19914;-60
2021/08/07 11:50:47;;;;;;;;;;;21.10;64.30;;;;;;5004135;28;20422;-61
2021/08/07 11:53:13;;;;;;;;;;;21.10;64.30;;;;;;5004074;28;19971;-60
2021/08/07 11:55:39;;;;;;;;;;;21.10;64.30;;;;;;5005664;28;19914;-59
2021/08/07 11:58:08;;;;;;;;;;;21.10;64.20;;;;;;5031774;22;19985;-59
2021/08/07 12:00:35;;;;;;;;;;;21.10;64.20;;;;;;5050216;28;19925;-54
2021/08/07 12:03:10;;;;;;;;;;;21.10;64.20;;;;;;5044735;28;20410;-58
2021/08/07 12:05:36;;;;;;;;;;;21.10;64.10;;;;;;5044825;28;19927;-59
2021/08/07 12:08:08;;;;;;;;;;;21.10;64.10;;;;;;5044513;28;20301;-56
2021/08/07 12:10:34;;;;;;;;;;;21.10;64.00;;;;;;5045265;28;19952;-58
2021/08/07 12:12:59;;;;;;;;;;;21.10;63.90;;;;;;5044786;28;20394;-55
2021/08/07 12:15:25;;;;;;;;;;;21.10;64.00;;;;;;5045083;28;19936;-55
2021/08/07 12:17:51;;;;;;;;;;;21.10;64.00;;;;;;5044530;28;19916;-58
2021/08/07 12:20:16;;;;;;;;;;;21.10;64.10;;;;;;5044667;28;19917;-58
2021/08/07 12:22:55;;;;;;;;;;;21.10;64.10;;;;;;5044782;28;19917;-55
2021/08/07 12:25:20;;;;;;;;;;;21.10;64.00;;;;;;5044208;28;19956;-56
2021/08/07 12:28:05;;;;;;;;;;;21.10;64.00;;;;;;5044100;28;19952;-55
2021/08/07 12:30:31;;;;;;;;;;;21.10;64.00;;;;;;5042181;28;20417;-59
2021/08/07 12:33:12;;;;;;;;;;;21.10;64.00;;;;;;5044152;28;19927;-59
2021/08/07 12:35:39;;;;;;;;;;;21.20;64.00;;;;;;5046087;28;19966;-57
2021/08/07 12:38:04;;;;;;;;;;;21.20;64.00;;;;;;5048234;28;20323;-60
2021/08/07 12:40:29;;;;;;;;;;;21.10;63.90;;;;;;5061876;28;19920;-59
2021/08/07 12:42:55;;;;;;;;;;;21.20;64.00;;;;;;5064566;28;19913;-58
2021/08/07 12:45:20;;;;;;;;;;;21.10;63.90;;;;;;5064050;28;19924;-57
2021/08/07 12:47:46;;;;;;;;;;;21.20;63.90;;;;;;5064516;28;19970;-56
2021/08/07 12:50:12;;;;;;;;;;;21.20;63.80;;;;;;5063904;28;21552;-59
2021/08/07 12:52:52;;;;;;;;;;;21.20;63.90;;;;;;5063470;28;20349;-57
2021/08/07 12:55:20;;;;;;;;;;;21.20;63.90;;;;;;5063990;28;19916;-58
2021/08/07 12:57:45;;;;;;;;;;;21.20;64.00;;;;;;5064199;28;19944;-56
2021/08/07 13:00:11;;;;;;;;;;;21.20;63.90;;;;;;5063986;28;19947;-58
2021/08/07 13:02:36;;;;;;;;;;;21.20;63.90;;;;;;5063893;28;19950;-59
2021/08/07 13:05:03;;;;;;;;;;;21.20;64.00;;;;;;5064144;28;20092;-58
2021/08/07 13:07:29;;;;;;;;;;;21.20;63.90;;;;;;5064211;28;19916;-57
2021/08/07 13:09:55;;;;;;;;;;;21.20;63.90;;;;;;5063499;28;19923;-58
2021/08/07 13:12:21;;;;;;;;;;;21.20;63.90;;;;;;5062067;28;20007;-59
2021/08/07 13:14:52;;;;;;;;;;;21.20;63.90;;;;;;5063870;28;19919;-56
2021/08/07 13:17:34;;;;;;;;;;;21.20;63.80;;;;;;5063458;28;19999;-57
2021/08/07 13:19:59;;;;;;;;;;;21.20;63.70;;;;;;5063597;28;19995;-56
2021/08/07 13:22:25;;;;;;;;;;;21.20;63.70;;;;;;5063569;28;19916;-59
2021/08/07 13:24:51;;;;;;;;;;;21.20;63.70;;;;;;5063643;28;19912;-59
2021/08/07 13:27:17;;;;;;;;;;;21.20;63.60;;;;;;5063664;28;20836;-53
2021/08/07 13:29:42;;;;;;;;;;;21.20;63.50;;;;;;5063381;28;19995;-57
2021/08/07 13:32:17;;;;;;;;;;;21.30;63.50;;;;;;5063545;28;20694;-56
2021/08/07 13:34:43;;;;;;;;;;;21.20;63.40;;;;;;5063686;28;19955;-58
2021/08/07 13:37:08;;;;;;;;;;;21.20;63.40;;;;;;5063264;28;19978;-61
2021/08/07 13:39:37;;;;;;;;;;;21.30;63.40;;;;;;5047337;28;19924;-55
2021/08/07 13:42:03;;;;;;;;;;;21.30;63.40;;;;;;5042910;28;19967;-56
2021/08/07 13:44:28;;;;;;;;;;;21.30;63.30;;;;;;5043301;28;19960;-57
2021/08/07 13:46:54;;;;;;;;;;;21.30;63.30;;;;;;5043046;28;19913;-57
2021/08/07 13:49:19;;;;;;;;;;;21.30;63.30;;;;;;5041233;28;19940;-57
2021/08/07 13:51:45;;;;;;;;;;;21.30;63.30;;;;;;5043391;28;19920;-57
2021/08/07 13:54:11;;;;;;;;;;;21.30;63.30;;;;;;5042739;28;20018;-58
2021/08/07 13:56:37;;;;;;;;;;;21.30;63.30;;;;;;5042732;28;19956;-57
2021/08/07 13:59:03;;;;;;;;;;;21.30;63.30;;;;;;5042329;28;19924;-56
2021/08/07 14:01:28;;;;;;;;;;;21.30;63.30;;;;;;5041525;28;20348;-58
2021/08/07 14:03:54;;;;;;;;;;;21.30;63.30;;;;;;5043129;28;20370;-57
2021/08/07 14:06:20;;;;;;;;;;;21.30;63.20;;;;;;5042945;28;19916;-57
2021/08/07 14:08:46;;;;;;;;;;;21.30;63.30;;;;;;5042792;28;19920;-58
2021/08/07 14:11:12;;;;;;;;;;;21.30;63.30;;;;;;5042885;28;21079;-57
2021/08/07 14:13:37;;;;;;;;;;;21.30;63.20;;;;;;5042443;28;19944;-59
2021/08/07 14:16:02;;;;;;;;;;;21.30;63.20;;;;;;5042530;28;19913;-58